sensor_id;sensor_type;location;lat;lon;timestamp;P1;durP1;ratioP1;P2;durP2;ratioP2
62863;SDS011;48954;59.950;11.014;2023-07-16T00:02:08;25.50;;;12.60;;
62863;SDS011;48954;59.950;11.014;2023-07-16T00:04:34;21.70;;;11.30;;
62863;SDS011;48954;59.950;11.014;2023-07-16T00:07:01;23.10;;;13.80;;
62863;SDS011;48954;59.950;11.014;2023-07-16T00:09:28;21.40;;;12.40;;
62863;SDS011;48954;59.950;11.014;2023-07-16T00:11:59;21.20;;;12.40;;
62863;SDS011;48954;59.950;11.014;2023-07-16T00:14:26;24.00;;;12.70;;
62863;SDS011;48954;59.950;11.014;2023-07-16T00:16:52;20.60;;;12.00;;
62863;SDS011;48954;59.950;11.014;2023-07-16T00:19:19;23.00;;;12.50;;
62863;SDS011;48954;59.950;11.014;2023-07-16T00:21:45;27.10;;;13.60;;
62863;SDS011;48954;59.950;11.014;2023-07-16T00:24:12;24.70;;;12.20;;
62863;SDS011;48954;59.950;11.014;2023-07-16T00:26:38;21.70;;;12.40;;
62863;SDS011;48954;59.950;11.014;2023-07-16T00:29:05;24.60;;;13.80;;
62863;SDS011;48954;59.950;11.014;2023-07-16T00:31:31;21.70;;;13.60;;
62863;SDS011;48954;59.950;11.014;2023-07-16T00:33:58;22.80;;;13.70;;
62863;SDS011;48954;59.950;11.014;2023-07-16T00:36:25;22.50;;;12.70;;
62863;SDS011;48954;59.950;11.014;2023-07-16T00:38:51;20.00;;;12.40;;
62863;SDS011;48954;59.950;11.014;2023-07-16T00:41:18;25.90;;;12.40;;
62863;SDS011;48954;59.950;11.014;2023-07-16T00:43:44;21.10;;;11.80;;
62863;SDS011;48954;59.950;11.014;2023-07-16T00:46:11;21.20;;;11.40;;
62863;SDS011;48954;59.950;11.014;2023-07-16T00:48:38;21.10;;;11.80;;
62863;SDS011;48954;59.950;11.014;2023-07-16T00:51:06;16.30;;;10.80;;
62863;SDS011;48954;59.950;11.014;2023-07-16T00:53:34;18.20;;;10.40;;
62863;SDS011;48954;59.950;11.014;2023-07-16T00:56:01;17.20;;;10.30;;
62863;SDS011;48954;59.950;11.014;2023-07-16T00:58:27;16.90;;;10.60;;
62863;SDS011;48954;59.950;11.014;2023-07-16T01:00:54;16.70;;;10.80;;
62863;SDS011;48954;59.950;11.014;2023-07-16T01:03:20;19.10;;;11.30;;
62863;SDS011;48954;59.950;11.014;2023-07-16T01:06:04;20.20;;;11.80;;
62863;SDS011;48954;59.950;11.014;2023-07-16T01:11:27;23.10;;;12.80;;
62863;SDS011;48954;59.950;11.014;2023-07-16T01:13:55;19.10;;;12.30;;
62863;SDS011;48954;59.950;11.014;2023-07-16T01:16:23;24.50;;;14.10;;
62863;SDS011;48954;59.950;11.014;2023-07-16T01:18:51;21.80;;;12.70;;
62863;SDS011;48954;59.950;11.014;2023-07-16T01:21:21;23.80;;;13.10;;
62863;SDS011;48954;59.950;11.014;2023-07-16T01:29:33;16.10;;;9.20;;
62863;SDS011;48954;59.950;11.014;2023-07-16T01:32:03;13.30;;;7.60;;
62863;SDS011;48954;59.950;11.014;2023-07-16T01:34:32;13.60;;;8.10;;
62863;SDS011;48954;59.950;11.014;2023-07-16T01:37:02;11.10;;;7.30;;
62863;SDS011;48954;59.950;11.014;2023-07-16T01:39:30;12.10;;;7.50;;
62863;SDS011;48954;59.950;11.014;2023-07-16T01:42:02;12.60;;;7.70;;
62863;SDS011;48954;59.950;11.014;2023-07-16T01:44:29;14.30;;;8.10;;
62863;SDS011;48954;59.950;11.014;2023-07-16T01:49:40;11.00;;;6.50;;
62863;SDS011;48954;59.950;11.014;2023-07-16T01:52:08;12.50;;;6.90;;
62863;SDS011;48954;59.950;11.014;2023-07-16T01:54:35;11.60;;;7.70;;
62863;SDS011;48954;59.950;11.014;2023-07-16T01:57:02;11.80;;;7.70;;
62863;SDS011;48954;59.950;11.014;2023-07-16T01:59:28;13.20;;;7.30;;
62863;SDS011;48954;59.950;11.014;2023-07-16T02:01:55;11.80;;;7.20;;
62863;SDS011;48954;59.950;11.014;2023-07-16T02:04:22;11.50;;;6.80;;
62863;SDS011;48954;59.950;11.014;2023-07-16T02:06:48;13.40;;;7.20;;
62863;SDS011;48954;59.950;11.014;2023-07-16T02:09:15;12.20;;;7.50;;
62863;SDS011;48954;59.950;11.014;2023-07-16T02:11:42;12.90;;;7.00;;
62863;SDS011;48954;59.950;11.014;2023-07-16T02:14:08;10.70;;;6.30;;
62863;SDS011;48954;59.950;11.014;2023-07-16T02:16:36;11.90;;;7.00;;
62863;SDS011;48954;59.950;11.014;2023-07-16T02:19:03;11.10;;;6.60;;
62863;SDS011;48954;59.950;11.014;2023-07-16T02:21:45;14.00;;;7.50;;
62863;SDS011;48954;59.950;11.014;2023-07-16T02:24:11;10.40;;;7.00;;
62863;SDS011;48954;59.950;11.014;2023-07-16T02:26:38;14.20;;;7.10;;
62863;SDS011;48954;59.950;11.014;2023-07-16T02:29:05;12.90;;;6.70;;
62863;SDS011;48954;59.950;11.014;2023-07-16T02:31:32;8.90;;;6.30;;
62863;SDS011;48954;59.950;11.014;2023-07-16T02:33:58;11.90;;;6.60;;
62863;SDS011;48954;59.950;11.014;2023-07-16T02:36:25;11.60;;;6.90;;
62863;SDS011;48954;59.950;11.014;2023-07-16T02:38:55;11.30;;;6.60;;
62863;SDS011;48954;59.950;11.014;2023-07-16T02:41:22;9.90;;;6.30;;
62863;SDS011;48954;59.950;11.014;2023-07-16T02:43:58;12.40;;;6.60;;
62863;SDS011;48954;59.950;11.014;2023-07-16T02:46:25;12.00;;;6.40;;
62863;SDS011;48954;59.950;11.014;2023-07-16T02:48:52;11.00;;;6.20;;
62863;SDS011;48954;59.950;11.014;2023-07-16T02:51:18;16.90;;;6.40;;
62863;SDS011;48954;59.950;11.014;2023-07-16T02:53:45;14.10;;;6.80;;
62863;SDS011;48954;59.950;11.014;2023-07-16T02:56:11;14.30;;;6.50;;
62863;SDS011;48954;59.950;11.014;2023-07-16T02:58:37;11.40;;;6.30;;
62863;SDS011;48954;59.950;11.014;2023-07-16T03:01:04;13.10;;;7.40;;
62863;SDS011;48954;59.950;11.014;2023-07-16T03:03:30;12.30;;;6.90;;
62863;SDS011;48954;59.950;11.014;2023-07-16T03:05:57;13.70;;;7.00;;
62863;SDS011;48954;59.950;11.014;2023-07-16T03:08:23;11.50;;;7.30;;
62863;SDS011;48954;59.950;11.014;2023-07-16T03:10:50;12.90;;;7.10;;
62863;SDS011;48954;59.950;11.014;2023-07-16T03:13:17;12.30;;;6.90;;
62863;SDS011;48954;59.950;11.014;2023-07-16T03:15:44;12.00;;;6.30;;
62863;SDS011;48954;59.950;11.014;2023-07-16T03:18:11;11.40;;;6.50;;
62863;SDS011;48954;59.950;11.014;2023-07-16T03:20:37;10.60;;;5.80;;
62863;SDS011;48954;59.950;11.014;2023-07-16T03:25:55;14.30;;;7.90;;
62863;SDS011;48954;59.950;11.014;2023-07-16T03:28:22;15.90;;;8.30;;
62863;SDS011;48954;59.950;11.014;2023-07-16T03:30:48;15.30;;;8.10;;
62863;SDS011;48954;59.950;11.014;2023-07-16T03:33:16;12.80;;;7.60;;
62863;SDS011;48954;59.950;11.014;2023-07-16T03:35:45;14.90;;;6.90;;
62863;SDS011;48954;59.950;11.014;2023-07-16T03:38:12;17.40;;;7.80;;
62863;SDS011;48954;59.950;11.014;2023-07-16T03:40:39;12.60;;;7.30;;
62863;SDS011;48954;59.950;11.014;2023-07-16T03:43:13;14.80;;;7.60;;
62863;SDS011;48954;59.950;11.014;2023-07-16T03:45:40;13.20;;;8.00;;
62863;SDS011;48954;59.950;11.014;2023-07-16T06:38:06;10.40;;;5.20;;
62863;SDS011;48954;59.950;11.014;2023-07-16T06:41:10;10.60;;;4.20;;
62863;SDS011;48954;59.950;11.014;2023-07-16T06:44:13;11.50;;;4.80;;
62863;SDS011;48954;59.950;11.014;2023-07-16T07:04:20;11.40;;;5.50;;
62863;SDS011;48954;59.950;11.014;2023-07-16T07:07:11;13.40;;;5.50;;
62863;SDS011;48954;59.950;11.014;2023-07-16T07:10:11;13.60;;;6.90;;
62863;SDS011;48954;59.950;11.014;2023-07-16T07:44:00;15.90;;;6.50;;
62863;SDS011;48954;59.950;11.014;2023-07-16T07:46:41;13.50;;;5.80;;
62863;SDS011;48954;59.950;11.014;2023-07-16T07:49:22;13.30;;;6.70;;
62863;SDS011;48954;59.950;11.014;2023-07-16T07:51:57;16.00;;;6.40;;
62863;SDS011;48954;59.950;11.014;2023-07-16T07:54:59;12.40;;;6.20;;
62863;SDS011;48954;59.950;11.014;2023-07-16T08:11:47;15.80;;;5.80;;
62863;SDS011;48954;59.950;11.014;2023-07-16T08:14:30;14.70;;;6.70;;
62863;SDS011;48954;59.950;11.014;2023-07-16T08:26:53;21.60;;;6.80;;
62863;SDS011;48954;59.950;11.014;2023-07-16T08:49:58;17.50;;;6.00;;
62863;SDS011;48954;59.950;11.014;2023-07-16T08:52:26;19.90;;;6.20;;
62863;SDS011;48954;59.950;11.014;2023-07-16T08:55:01;13.90;;;5.70;;
62863;SDS011;48954;59.950;11.014;2023-07-16T08:57:29;21.60;;;6.70;;
62863;SDS011;48954;59.950;11.014;2023-07-16T08:59:59;14.70;;;6.50;;
62863;SDS011;48954;59.950;11.014;2023-07-16T09:02:27;16.70;;;6.70;;
62863;SDS011;48954;59.950;11.014;2023-07-16T09:04:53;20.80;;;6.00;;
62863;SDS011;48954;59.950;11.014;2023-07-16T09:07:22;18.10;;;6.40;;
62863;SDS011;48954;59.950;11.014;2023-07-16T09:09:58;18.60;;;6.30;;
62863;SDS011;48954;59.950;11.014;2023-07-16T09:14:59;18.20;;;6.80;;
62863;SDS011;48954;59.950;11.014;2023-07-16T09:17:31;21.90;;;6.00;;
62863;SDS011;48954;59.950;11.014;2023-07-16T09:19:57;20.10;;;6.80;;
62863;SDS011;48954;59.950;11.014;2023-07-16T09:25:45;20.60;;;6.90;;
62863;SDS011;48954;59.950;11.014;2023-07-16T09:28:14;17.20;;;5.90;;
62863;SDS011;48954;59.950;11.014;2023-07-16T09:31:06;19.10;;;5.80;;
62863;SDS011;48954;59.950;11.014;2023-07-16T09:40:03;27.30;;;8.00;;
62863;SDS011;48954;59.950;11.014;2023-07-16T09:43:15;17.90;;;6.70;;
62863;SDS011;48954;59.950;11.014;2023-07-16T09:45:44;20.40;;;6.40;;
62863;SDS011;48954;59.950;11.014;2023-07-16T09:48:31;17.70;;;6.00;;
62863;SDS011;48954;59.950;11.014;2023-07-16T09:51:38;25.90;;;6.40;;
62863;SDS011;48954;59.950;11.014;2023-07-16T09:54:16;22.40;;;6.60;;
62863;SDS011;48954;59.950;11.014;2023-07-16T09:57:34;22.60;;;6.60;;
62863;SDS011;48954;59.950;11.014;2023-07-16T10:00:24;18.90;;;5.10;;
62863;SDS011;48954;59.950;11.014;2023-07-16T10:03:20;20.60;;;5.70;;
62863;SDS011;48954;59.950;11.014;2023-07-16T10:09:36;17.40;;;5.10;;
62863;SDS011;48954;59.950;11.014;2023-07-16T10:12:32;19.20;;;5.80;;
62863;SDS011;48954;59.950;11.014;2023-07-16T10:15:01;28.30;;;5.60;;
62863;SDS011;48954;59.950;11.014;2023-07-16T10:17:37;22.90;;;5.80;;
62863;SDS011;48954;59.950;11.014;2023-07-16T10:20:35;19.40;;;4.80;;
62863;SDS011;48954;59.950;11.014;2023-07-16T10:23:17;19.70;;;5.00;;
62863;SDS011;48954;59.950;11.014;2023-07-16T10:26:01;17.30;;;5.10;;
62863;SDS011;48954;59.950;11.014;2023-07-16T10:28:36;14.20;;;4.80;;
62863;SDS011;48954;59.950;11.014;2023-07-16T10:31:24;18.20;;;4.80;;
62863;SDS011;48954;59.950;11.014;2023-07-16T10:36:44;22.10;;;5.10;;
62863;SDS011;48954;59.950;11.014;2023-07-16T10:39:28;18.60;;;3.80;;
62863;SDS011;48954;59.950;11.014;2023-07-16T10:45:10;17.90;;;5.50;;
62863;SDS011;48954;59.950;11.014;2023-07-16T10:47:39;18.60;;;4.30;;
62863;SDS011;48954;59.950;11.014;2023-07-16T10:50:38;20.90;;;4.30;;
62863;SDS011;48954;59.950;11.014;2023-07-16T10:56:44;24.60;;;5.50;;
62863;SDS011;48954;59.950;11.014;2023-07-16T10:59:11;19.70;;;5.30;;
62863;SDS011;48954;59.950;11.014;2023-07-16T11:01:46;21.70;;;4.90;;
62863;SDS011;48954;59.950;11.014;2023-07-16T11:04:13;22.90;;;5.60;;
62863;SDS011;48954;59.950;11.014;2023-07-16T11:06:40;16.10;;;4.70;;
62863;SDS011;48954;59.950;11.014;2023-07-16T11:09:10;20.50;;;4.90;;
62863;SDS011;48954;59.950;11.014;2023-07-16T11:11:51;24.30;;;6.10;;
62863;SDS011;48954;59.950;11.014;2023-07-16T11:14:18;16.90;;;4.70;;
62863;SDS011;48954;59.950;11.014;2023-07-16T11:16:45;20.20;;;5.20;;
62863;SDS011;48954;59.950;11.014;2023-07-16T11:19:20;24.90;;;5.30;;
62863;SDS011;48954;59.950;11.014;2023-07-16T11:21:51;14.50;;;5.30;;
62863;SDS011;48954;59.950;11.014;2023-07-16T11:24:19;13.90;;;5.50;;
62863;SDS011;48954;59.950;11.014;2023-07-16T11:26:51;13.70;;;4.60;;
62863;SDS011;48954;59.950;11.014;2023-07-16T11:29:18;23.20;;;6.00;;
62863;SDS011;48954;59.950;11.014;2023-07-16T11:31:48;20.60;;;5.40;;
62863;SDS011;48954;59.950;11.014;2023-07-16T11:34:32;25.70;;;5.20;;
62863;SDS011;48954;59.950;11.014;2023-07-16T11:37:09;17.80;;;5.60;;
62863;SDS011;48954;59.950;11.014;2023-07-16T11:39:37;27.00;;;5.60;;
62863;SDS011;48954;59.950;11.014;2023-07-16T11:42:13;18.00;;;6.10;;
62863;SDS011;48954;59.950;11.014;2023-07-16T11:44:39;22.80;;;5.60;;
62863;SDS011;48954;59.950;11.014;2023-07-16T11:47:09;19.20;;;5.80;;
62863;SDS011;48954;59.950;11.014;2023-07-16T11:49:58;19.20;;;5.40;;
62863;SDS011;48954;59.950;11.014;2023-07-16T11:52:40;19.20;;;5.30;;
62863;SDS011;48954;59.950;11.014;2023-07-16T11:56:01;19.20;;;6.00;;
62863;SDS011;48954;59.950;11.014;2023-07-16T11:58:31;19.60;;;6.50;;
62863;SDS011;48954;59.950;11.014;2023-07-16T12:01:00;19.50;;;6.70;;
62863;SDS011;48954;59.950;11.014;2023-07-16T12:03:34;20.20;;;6.60;;
62863;SDS011;48954;59.950;11.014;2023-07-16T12:06:03;25.70;;;6.30;;
62863;SDS011;48954;59.950;11.014;2023-07-16T12:08:44;24.80;;;5.90;;
62863;SDS011;48954;59.950;11.014;2023-07-16T12:11:21;22.30;;;5.50;;
62863;SDS011;48954;59.950;11.014;2023-07-16T12:13:48;15.60;;;4.60;;
62863;SDS011;48954;59.950;11.014;2023-07-16T12:16:19;21.20;;;5.80;;
62863;SDS011;48954;59.950;11.014;2023-07-16T12:18:45;18.60;;;5.70;;
62863;SDS011;48954;59.950;11.014;2023-07-16T12:21:48;13.40;;;4.90;;
62863;SDS011;48954;59.950;11.014;2023-07-16T12:24:29;15.60;;;5.60;;
62863;SDS011;48954;59.950;11.014;2023-07-16T12:27:14;17.30;;;5.80;;
62863;SDS011;48954;59.950;11.014;2023-07-16T12:29:49;24.30;;;5.70;;
62863;SDS011;48954;59.950;11.014;2023-07-16T12:32:17;21.10;;;6.00;;
62863;SDS011;48954;59.950;11.014;2023-07-16T12:34:45;20.40;;;5.20;;
62863;SDS011;48954;59.950;11.014;2023-07-16T12:37:17;19.30;;;5.00;;
62863;SDS011;48954;59.950;11.014;2023-07-16T12:39:47;19.00;;;5.50;;
62863;SDS011;48954;59.950;11.014;2023-07-16T12:42:15;12.30;;;4.60;;
62863;SDS011;48954;59.950;11.014;2023-07-16T12:45:06;15.40;;;5.20;;
62863;SDS011;48954;59.950;11.014;2023-07-16T12:47:35;16.20;;;5.00;;
62863;SDS011;48954;59.950;11.014;2023-07-16T12:50:18;20.10;;;5.80;;
62863;SDS011;48954;59.950;11.014;2023-07-16T12:53:04;18.80;;;6.30;;
62863;SDS011;48954;59.950;11.014;2023-07-16T12:55:38;18.50;;;5.40;;
62863;SDS011;48954;59.950;11.014;2023-07-16T12:58:18;22.00;;;6.60;;
62863;SDS011;48954;59.950;11.014;2023-07-16T13:01:02;19.40;;;6.00;;
62863;SDS011;48954;59.950;11.014;2023-07-16T13:04:08;21.20;;;5.20;;
62863;SDS011;48954;59.950;11.014;2023-07-16T13:06:50;17.20;;;5.30;;
62863;SDS011;48954;59.950;11.014;2023-07-16T13:09:51;18.00;;;5.40;;
62863;SDS011;48954;59.950;11.014;2023-07-16T13:12:22;20.20;;;6.10;;
62863;SDS011;48954;59.950;11.014;2023-07-16T13:14:52;25.80;;;7.20;;
62863;SDS011;48954;59.950;11.014;2023-07-16T13:17:41;18.70;;;5.70;;
62863;SDS011;48954;59.950;11.014;2023-07-16T13:20:14;24.90;;;6.20;;
62863;SDS011;48954;59.950;11.014;2023-07-16T13:22:49;20.30;;;6.60;;
62863;SDS011;48954;59.950;11.014;2023-07-16T13:25:36;21.50;;;6.10;;
62863;SDS011;48954;59.950;11.014;2023-07-16T13:28:17;17.50;;;5.90;;
62863;SDS011;48954;59.950;11.014;2023-07-16T13:30:57;17.70;;;5.60;;
62863;SDS011;48954;59.950;11.014;2023-07-16T13:33:40;15.30;;;5.80;;
62863;SDS011;48954;59.950;11.014;2023-07-16T13:36:22;17.10;;;5.40;;
62863;SDS011;48954;59.950;11.014;2023-07-16T13:39:44;18.50;;;5.60;;
62863;SDS011;48954;59.950;11.014;2023-07-16T13:42:16;18.00;;;4.90;;
62863;SDS011;48954;59.950;11.014;2023-07-16T13:44:43;18.80;;;5.40;;
62863;SDS011;48954;59.950;11.014;2023-07-16T13:47:43;17.00;;;4.80;;
62863;SDS011;48954;59.950;11.014;2023-07-16T13:50:25;13.30;;;3.80;;
62863;SDS011;48954;59.950;11.014;2023-07-16T13:53:09;16.20;;;5.40;;
62863;SDS011;48954;59.950;11.014;2023-07-16T13:55:44;17.10;;;5.10;;
62863;SDS011;48954;59.950;11.014;2023-07-16T13:58:43;16.00;;;4.90;;
62863;SDS011;48954;59.950;11.014;2023-07-16T14:01:45;15.50;;;5.60;;
62863;SDS011;48954;59.950;11.014;2023-07-16T14:04:25;18.10;;;5.50;;
62863;SDS011;48954;59.950;11.014;2023-07-16T14:07:04;14.80;;;4.70;;
62863;SDS011;48954;59.950;11.014;2023-07-16T14:09:46;12.80;;;5.10;;
62863;SDS011;48954;59.950;11.014;2023-07-16T14:12:14;15.50;;;4.70;;
62863;SDS011;48954;59.950;11.014;2023-07-16T14:14:40;17.10;;;4.70;;
62863;SDS011;48954;59.950;11.014;2023-07-16T14:17:09;16.10;;;5.10;;
62863;SDS011;48954;59.950;11.014;2023-07-16T14:19:40;14.70;;;4.20;;
62863;SDS011;48954;59.950;11.014;2023-07-16T14:22:39;16.40;;;5.70;;
62863;SDS011;48954;59.950;11.014;2023-07-16T14:25:19;17.40;;;3.80;;
62863;SDS011;48954;59.950;11.014;2023-07-16T14:28:02;16.20;;;4.60;;
62863;SDS011;48954;59.950;11.014;2023-07-16T14:30:43;15.50;;;4.60;;
62863;SDS011;48954;59.950;11.014;2023-07-16T14:33:24;19.90;;;5.50;;
62863;SDS011;48954;59.950;11.014;2023-07-16T14:35:55;11.80;;;3.70;;
62863;SDS011;48954;59.950;11.014;2023-07-16T14:38:56;15.60;;;5.80;;
62863;SDS011;48954;59.950;11.014;2023-07-16T14:41:25;15.90;;;4.80;;
62863;SDS011;48954;59.950;11.014;2023-07-16T14:44:32;14.20;;;4.40;;
62863;SDS011;48954;59.950;11.014;2023-07-16T14:47:13;16.60;;;5.20;;
62863;SDS011;48954;59.950;11.014;2023-07-16T14:52:19;22.00;;;5.80;;
62863;SDS011;48954;59.950;11.014;2023-07-16T14:55:00;16.90;;;5.40;;
62863;SDS011;48954;59.950;11.014;2023-07-16T14:57:28;17.90;;;5.30;;
62863;SDS011;48954;59.950;11.014;2023-07-16T15:00:11;15.70;;;4.90;;
62863;SDS011;48954;59.950;11.014;2023-07-16T15:02:40;21.20;;;5.50;;
62863;SDS011;48954;59.950;11.014;2023-07-16T15:05:21;24.70;;;6.00;;
62863;SDS011;48954;59.950;11.014;2023-07-16T15:07:47;17.90;;;4.80;;
62863;SDS011;48954;59.950;11.014;2023-07-16T15:10:20;17.30;;;4.60;;
62863;SDS011;48954;59.950;11.014;2023-07-16T15:13:02;24.70;;;6.00;;
62863;SDS011;48954;59.950;11.014;2023-07-16T15:15:47;24.70;;;6.20;;
62863;SDS011;48954;59.950;11.014;2023-07-16T15:18:36;23.10;;;5.50;;
62863;SDS011;48954;59.950;11.014;2023-07-16T15:21:03;23.50;;;5.70;;
62863;SDS011;48954;59.950;11.014;2023-07-16T15:23:44;22.80;;;4.50;;
62863;SDS011;48954;59.950;11.014;2023-07-16T15:26:11;25.10;;;5.80;;
62863;SDS011;48954;59.950;11.014;2023-07-16T15:28:37;20.40;;;6.50;;
62863;SDS011;48954;59.950;11.014;2023-07-16T15:31:19;22.80;;;5.50;;
62863;SDS011;48954;59.950;11.014;2023-07-16T15:34:06;22.00;;;5.60;;
62863;SDS011;48954;59.950;11.014;2023-07-16T15:37:09;15.40;;;5.40;;
62863;SDS011;48954;59.950;11.014;2023-07-16T15:39:55;20.40;;;5.80;;
62863;SDS011;48954;59.950;11.014;2023-07-16T15:42:41;24.50;;;5.40;;
62863;SDS011;48954;59.950;11.014;2023-07-16T15:45:23;26.30;;;6.40;;
62863;SDS011;48954;59.950;11.014;2023-07-16T15:48:13;13.10;;;4.80;;
62863;SDS011;48954;59.950;11.014;2023-07-16T15:50:44;20.90;;;4.80;;
62863;SDS011;48954;59.950;11.014;2023-07-16T15:53:11;21.50;;;5.00;;
62863;SDS011;48954;59.950;11.014;2023-07-16T15:55:53;13.10;;;4.70;;
62863;SDS011;48954;59.950;11.014;2023-07-16T16:01:16;21.20;;;5.50;;
62863;SDS011;48954;59.950;11.014;2023-07-16T16:03:56;17.70;;;4.60;;
62863;SDS011;48954;59.950;11.014;2023-07-16T16:06:26;18.00;;;5.10;;
62863;SDS011;48954;59.950;11.014;2023-07-16T16:08:54;23.30;;;6.10;;
62863;SDS011;48954;59.950;11.014;2023-07-16T16:11:54;19.30;;;5.00;;
62863;SDS011;48954;59.950;11.014;2023-07-16T16:14:21;15.30;;;4.60;;
62863;SDS011;48954;59.950;11.014;2023-07-16T16:17:02;15.30;;;4.00;;
62863;SDS011;48954;59.950;11.014;2023-07-16T16:19:29;21.60;;;5.80;;
62863;SDS011;48954;59.950;11.014;2023-07-16T16:21:57;20.40;;;5.00;;
62863;SDS011;48954;59.950;11.014;2023-07-16T16:24:37;23.20;;;5.50;;
62863;SDS011;48954;59.950;11.014;2023-07-16T16:27:18;17.90;;;5.00;;
62863;SDS011;48954;59.950;11.014;2023-07-16T16:29:48;16.30;;;5.80;;
62863;SDS011;48954;59.950;11.014;2023-07-16T16:32:22;22.70;;;5.00;;
62863;SDS011;48954;59.950;11.014;2023-07-16T16:35:04;24.00;;;5.60;;
62863;SDS011;48954;59.950;11.014;2023-07-16T16:37:44;21.20;;;6.10;;
62863;SDS011;48954;59.950;11.014;2023-07-16T16:40:25;22.50;;;4.80;;
62863;SDS011;48954;59.950;11.014;2023-07-16T16:43:06;18.60;;;5.40;;
62863;SDS011;48954;59.950;11.014;2023-07-16T16:45:46;27.90;;;5.60;;
62863;SDS011;48954;59.950;11.014;2023-07-16T16:48:14;15.90;;;4.50;;
62863;SDS011;48954;59.950;11.014;2023-07-16T16:50:41;14.20;;;4.70;;
62863;SDS011;48954;59.950;11.014;2023-07-16T16:53:10;17.90;;;4.90;;
62863;SDS011;48954;59.950;11.014;2023-07-16T16:55:36;25.90;;;5.90;;
62863;SDS011;48954;59.950;11.014;2023-07-16T16:58:04;17.70;;;5.30;;
62863;SDS011;48954;59.950;11.014;2023-07-16T17:00:31;20.30;;;5.20;;
62863;SDS011;48954;59.950;11.014;2023-07-16T17:02:57;20.50;;;4.70;;
62863;SDS011;48954;59.950;11.014;2023-07-16T17:05:24;16.90;;;5.10;;
62863;SDS011;48954;59.950;11.014;2023-07-16T17:08:05;19.50;;;4.40;;
62863;SDS011;48954;59.950;11.014;2023-07-16T17:10:32;17.80;;;4.10;;
62863;SDS011;48954;59.950;11.014;2023-07-16T17:12:58;21.20;;;5.20;;
62863;SDS011;48954;59.950;11.014;2023-07-16T17:15:27;24.40;;;6.10;;
62863;SDS011;48954;59.950;11.014;2023-07-16T17:17:55;19.40;;;5.60;;
62863;SDS011;48954;59.950;11.014;2023-07-16T17:20:23;15.60;;;4.00;;
62863;SDS011;48954;59.950;11.014;2023-07-16T17:22:56;15.40;;;4.50;;
62863;SDS011;48954;59.950;11.014;2023-07-16T17:25:33;21.00;;;5.60;;
62863;SDS011;48954;59.950;11.014;2023-07-16T17:28:01;19.20;;;5.70;;
62863;SDS011;48954;59.950;11.014;2023-07-16T17:30:27;24.20;;;5.00;;
62863;SDS011;48954;59.950;11.014;2023-07-16T17:32:58;21.50;;;5.10;;
62863;SDS011;48954;59.950;11.014;2023-07-16T17:35:25;23.90;;;5.80;;
62863;SDS011;48954;59.950;11.014;2023-07-16T17:37:52;23.70;;;6.00;;
62863;SDS011;48954;59.950;11.014;2023-07-16T17:40:20;24.10;;;6.10;;
62863;SDS011;48954;59.950;11.014;2023-07-16T17:42:56;22.70;;;5.20;;
62863;SDS011;48954;59.950;11.014;2023-07-16T17:45:27;23.90;;;6.00;;
62863;SDS011;48954;59.950;11.014;2023-07-16T17:47:58;13.10;;;4.20;;
62863;SDS011;48954;59.950;11.014;2023-07-16T17:50:38;28.50;;;5.50;;
62863;SDS011;48954;59.950;11.014;2023-07-16T17:53:05;18.40;;;5.40;;
62863;SDS011;48954;59.950;11.014;2023-07-16T17:55:33;23.00;;;5.40;;
62863;SDS011;48954;59.950;11.014;2023-07-16T17:58:00;22.80;;;5.40;;
62863;SDS011;48954;59.950;11.014;2023-07-16T18:00:27;20.70;;;5.50;;
62863;SDS011;48954;59.950;11.014;2023-07-16T18:02:54;20.70;;;5.90;;
62863;SDS011;48954;59.950;11.014;2023-07-16T18:05:23;20.60;;;5.00;;
62863;SDS011;48954;59.950;11.014;2023-07-16T18:07:59;18.10;;;5.50;;
62863;SDS011;48954;59.950;11.014;2023-07-16T18:10:27;21.50;;;5.70;;
62863;SDS011;48954;59.950;11.014;2023-07-16T18:12:55;24.10;;;5.60;;
62863;SDS011;48954;59.950;11.014;2023-07-16T18:15:22;19.90;;;5.50;;
62863;SDS011;48954;59.950;11.014;2023-07-16T18:17:50;23.60;;;5.20;;
62863;SDS011;48954;59.950;11.014;2023-07-16T18:20:27;25.80;;;5.40;;
62863;SDS011;48954;59.950;11.014;2023-07-16T18:23:08;23.30;;;5.20;;
62863;SDS011;48954;59.950;11.014;2023-07-16T18:25:39;25.60;;;5.20;;
62863;SDS011;48954;59.950;11.014;2023-07-16T18:28:18;26.20;;;5.90;;
62863;SDS011;48954;59.950;11.014;2023-07-16T18:30:44;17.70;;;5.10;;
62863;SDS011;48954;59.950;11.014;2023-07-16T18:33:16;24.40;;;4.50;;
62863;SDS011;48954;59.950;11.014;2023-07-16T18:35:43;21.80;;;5.60;;
62863;SDS011;48954;59.950;11.014;2023-07-16T18:38:23;26.00;;;5.50;;
62863;SDS011;48954;59.950;11.014;2023-07-16T18:40:52;16.70;;;4.70;;
62863;SDS011;48954;59.950;11.014;2023-07-16T18:43:20;18.90;;;6.10;;
62863;SDS011;48954;59.950;11.014;2023-07-16T18:45:51;22.00;;;5.10;;
62863;SDS011;48954;59.950;11.014;2023-07-16T18:48:22;18.70;;;5.10;;
62863;SDS011;48954;59.950;11.014;2023-07-16T18:50:49;21.00;;;5.20;;
62863;SDS011;48954;59.950;11.014;2023-07-16T18:53:31;20.20;;;5.30;;
62863;SDS011;48954;59.950;11.014;2023-07-16T18:55:59;21.40;;;4.90;;
62863;SDS011;48954;59.950;11.014;2023-07-16T18:58:28;15.10;;;4.80;;
62863;SDS011;48954;59.950;11.014;2023-07-16T19:00:55;19.60;;;4.40;;
62863;SDS011;48954;59.950;11.014;2023-07-16T19:03:22;14.70;;;5.90;;
62863;SDS011;48954;59.950;11.014;2023-07-16T19:06:11;19.30;;;4.90;;
62863;SDS011;48954;59.950;11.014;2023-07-16T19:09:03;18.70;;;4.50;;
62863;SDS011;48954;59.950;11.014;2023-07-16T19:17:24;17.80;;;5.20;;
62863;SDS011;48954;59.950;11.014;2023-07-16T19:20:06;16.30;;;4.80;;
62863;SDS011;48954;59.950;11.014;2023-07-16T19:22:41;13.80;;;5.70;;
62863;SDS011;48954;59.950;11.014;2023-07-16T19:25:10;16.30;;;5.20;;
62863;SDS011;48954;59.950;11.014;2023-07-16T19:27:41;13.40;;;5.30;;
62863;SDS011;48954;59.950;11.014;2023-07-16T19:30:21;10.10;;;4.40;;
62863;SDS011;48954;59.950;11.014;2023-07-16T19:35:22;19.40;;;5.20;;
62863;SDS011;48954;59.950;11.014;2023-07-16T19:37:49;14.90;;;4.80;;
62863;SDS011;48954;59.950;11.014;2023-07-16T19:40:19;19.90;;;5.30;;
62863;SDS011;48954;59.950;11.014;2023-07-16T19:42:52;20.20;;;5.20;;
62863;SDS011;48954;59.950;11.014;2023-07-16T19:45:22;15.80;;;4.20;;
62863;SDS011;48954;59.950;11.014;2023-07-16T19:47:49;18.40;;;4.70;;
62863;SDS011;48954;59.950;11.014;2023-07-16T19:50:17;15.70;;;4.30;;
62863;SDS011;48954;59.950;11.014;2023-07-16T19:52:48;14.90;;;4.40;;
62863;SDS011;48954;59.950;11.014;2023-07-16T19:55:16;16.00;;;4.20;;
62863;SDS011;48954;59.950;11.014;2023-07-16T19:57:43;19.00;;;4.60;;
62863;SDS011;48954;59.950;11.014;2023-07-16T20:00:09;15.80;;;4.10;;
62863;SDS011;48954;59.950;11.014;2023-07-16T20:02:39;15.10;;;4.10;;
62863;SDS011;48954;59.950;11.014;2023-07-16T20:05:08;13.50;;;3.60;;
62863;SDS011;48954;59.950;11.014;2023-07-16T20:07:38;15.00;;;4.70;;
62863;SDS011;48954;59.950;11.014;2023-07-16T20:10:21;14.50;;;4.60;;
62863;SDS011;48954;59.950;11.014;2023-07-16T20:12:48;10.10;;;4.20;;
62863;SDS011;48954;59.950;11.014;2023-07-16T20:15:37;18.40;;;4.90;;
62863;SDS011;48954;59.950;11.014;2023-07-16T20:18:05;16.50;;;5.40;;
62863;SDS011;48954;59.950;11.014;2023-07-16T20:20:34;19.40;;;5.30;;